LICJ/PMO METAR and TAF weather

Enter ICAO airport designator
Station Type Date Time Source
LICJ METAR 2021/04/14 19:20 UTC NOAA

LICJ 141920Z AUTO 08010KT 9999 NCD 14/07 Q1018


Station Type Date Time Source
LICJ Decoded METAR 2021/04/14 19:20 UTC NOAA

Palermo / Punta Raisi, Italy (LICJ) 38-11N 013-06E 21M
Apr 14, 2021 - 03:20 PM EDT / 2021.04.14 1920 UTC
Wind: from the E (080 degrees) at 12 MPH (10 KT):0
Visibility: greater than 7 mile(s):0
Temperature: 57 F (14 C)
Dew Point: 44 F (7 C)
Relative Humidity: 62%
Pressure (altimeter): 30.06 in. Hg (1018 hPa)
ob: LICJ 141920Z AUTO 08010KT 9999 NCD 14/07 Q1018
cycle: 19

Station Type Date Time Source
LICJ TAF 2021/04/14 18:21 UTC NOAA

TAF LICJ 141700Z 1418/1518 05014KT 9999 FEW030
BECMG 1418/1420 18006KT
TEMPO 1510/1518 SHRA
BECMG 1510/1512 05014KT

Example: see airport list